Aktualne dane pomiarowe

Uwaga, wersja testowa! Automatyczne pobieranie danych za pomocą narzędzi lub skryptów to umożliwiających jest zabronione.

Dane meteo z obszaru Polski uzyskane na podstawie depesz SYNOP pobieranych co godzinę z NWS. Najedź myszką na symbol przedstawiony w tabeli, aby uzyskać informacje co do jego znaczenia. Prosimy pamiętać, że to testowa wersja strony, która jeszcze nie jest ukończona. Stworzono również jest krótki FAQ dotyczący korzystania z tej podstrony Anomalie temperatury w chwili obecnej odniesione są do okresu referencyjnego 1951-2016. Okres ten będzie później zmieniony na 1981-2010. Kliknij ikonę aby pobrać plik CSV. Kliknij ikonę aby wygenerować mapę synoptyczną dla danego terminu.

Wybierz Datę:    

        

Łódź (12465)

Dane terminowe dla wybranej stacji. Kliknij datę, aby otrzymać dane z tego terminu dla wszystkich stacji.

TemperaturaZachmurzenieWiatrCiśnienieOpadyPogoda
 Data t td wb tx tn tg rh  Nt Nl Cl Cm Ch ws wd g1 g2 wx mslp ppp ch 24h 12h t ww ww w1 w2  
2019-06-07 23:00:00 15.3 14.5 14.7--- 958.0wx-0---01015.8 994.2 0.1---wx---
2019-06-07 22:00:00 15.8 14.3 14.7--- 9111.0wx-1wx--11015.8 994.3 0.4---wx---
2019-06-07 21:00:00 17.1 15.8 16.2--- 9212.0wx-1wx--11015.5 994.1 0.4---------
2019-06-07 20:00:00 18.4 15.8 16.6--- 8514.0wx-wx1wx--11015.4 994.1 0.4---------
2019-06-07 19:00:00 20.9 16.4 17.8--- 7520.0wx-wxwx2wx--21015.0 993.9 0.4---------
2019-06-07 18:00:00 23.7 16.1 18.7 26.2 20.0- 6220.0wxwxwxwx1wx--11014.6 993.7 0.5--12------
2019-06-07 17:00:00 24.8 15.5 18.8--- 5620.0wxwxwxwx1wx--11014.6 993.7 0.6---------
2019-06-07 16:00:00 25.3 15.7 19.1--- 5520.0wxwxwxwx4wx--41014.3 993.5 0.6---------
2019-06-07 15:00:00 25.2 17.0 19.8--- 6020.0wxwxwxwx5wx--51014.0 993.2 -0.1---------
2019-06-07 14:00:00 25.4 16.6 19.6--- 5820.0wxwxwxwx4wx--41013.9 993.1 -0.2---------
2019-06-07 13:00:00 25.6 16.8 19.8--- 5820.0wxwxwxwx4wx--41013.7 992.9 -0.7---------
2019-06-07 12:00:00 24.8 16.3 19.2--- 5920.0wxwxwxwx3wx--31014.1 993.3 -0.5--6wx-w1--
2019-06-07 11:00:00 24.5 16.8 19.4--- 6220.0wxwxwxwx3wx--31014.2 993.3 0.2---------
2019-06-07 10:00:00 22.3 17.3 18.9--- 7315.0wxwxwxwxwx3wx--31014.6 993.6 0.8---------
2019-06-07 09:00:00 20.2 17.1 18.0--- 8211.0wxwxwx3wx--31015.0 993.8 1.5---wx---
2019-06-07 08:00:00 22.9 17.2 19.0--- 7020.0wxwxwxwx2wx--21014.1 993.1 1.2---------
2019-06-07 07:00:00 21.4 16.2 17.9--- 7219.0wxwxwxwxwx2wx--21013.9 992.8 0.8---------
2019-06-07 06:00:00 20.0 15.5 16.9 24.2 15.3 12 7520.0wxwxwxwxwx2---21013.5 992.3 0.6- 0.012----- 13.8
2019-06-07 05:00:00 18.5 15.0 16.1--- 8020.0wxwxwx1wx--11013.2 991.9 0.5---------
2019-06-07 04:00:00 16.8 14.4 15.1--- 8618.0wxwxwxwx1wx--11013.4 992.0 0.8---------
2019-06-07 03:00:00 15.9 14.1 14.6--- 8919.0wx-wxwx2wx--21013.2 991.7 0.5---------
2019-06-07 02:00:00 15.7 13.5 14.2--- 8720.0wx-wxwx1wx--11012.9 991.4 0.3---------
2019-06-07 01:00:00 16.0 13.8 14.5--- 8720.0wx-wx2wx---1012.6 991.2 -0.1---------
2019-06-07 00:00:00 15.8 13.1 14.0--- 8420.0wx-wx1wx--11012.7 991.2 -0.2- 0.06------
2019-06-06 23:00:00 16.3 13.6 14.4--- 8420.0wx-wx3wx--31012.5 991.1 -0.2---------
2019-06-06 22:00:00 18.9 14.0 15.7--- 7320.0wx-wx2wx--21012.5 991.3 0.4---------
2019-06-06 21:00:00 20.5 14.3 16.4--- 6820.0wx-wx2wx--21012.5 991.4 0.8---------
2019-06-06 20:00:00 21.0 13.8 16.4--- 6320.0wx-wxwx2wx--21012.4 991.3 1.5---------
2019-06-06 19:00:00 22.7 13.6 16.9--- 5720.0wx-wxwx2wx--21011.8 990.9 1.0---------
2019-06-06 18:00:00 24.2 13.8 17.7 28.2 20.6- 5220.0wxwxwxwxwx3--931011.4 990.6 0.6- 0.012------
2019-06-06 17:00:00 25.6 13.9 18.3--- 4820.0wxwxwxwxwx3wx-931010.5 989.8 -0.5---------
2019-06-06 16:00:00 26.1 13.0 18.0--- 4420.0wxwxwxwxwx3wx--31010.6 989.9 -0.7---------
2019-06-06 15:00:00 27.2 11.3 17.7--- 3720.0wxwxwxwxwx3--831010.6 990.0 -0.6---------
2019-06-06 14:00:00 27.6 11.7 18.0--- 3720.0wxwxwxwx4---41010.9 990.3 -0.7---------
2019-06-06 13:00:00 26.8 11.4 17.5--- 3820.0wxwxwx4---41011.2 990.6 -0.6---------
2019-06-06 12:00:00 27.5 12.4 18.3--- 3920.0wxwxwxwx3--1131011.2 990.6 -0.7- 0.06------
2019-06-06 11:00:00 26.9 12.2 18.0--- 4020.0wxwxwxwx4--941011.7 991.0 -0.2---------
2019-06-06 10:00:00 25.9 11.7 17.3--- 4120.0wxwxwxwx4-101041011.9 991.2 0.0---------
2019-06-06 09:00:00 24.9 12.9 17.5--- 4720.0wxwxwxwx5wx--51012.1 991.3 0.1---------
2019-06-06 08:00:00 24.5 13.2 17.5--- 4920.0wx-wx4wx---1012.0 991.2 0.3---------
2019-06-06 07:00:00 22.0 14.0 16.9--- 6120.0wx-wx4wx--41012.2 991.2 0.6---------
2019-06-06 06:00:00 20.9 14.4 16.7 25.0 17.0 16 6620.0wx-wx3wx--31012.3 991.2 0.9- 0.012----- 14.6
2019-06-06 05:00:00 19.3 13.7 15.6--- 7020.0wx-wx4wx--41012.1 990.9 0.8---------
2019-06-06 04:00:00 17.8 13.5 14.9--- 7620.0wx-wx4wx--41011.9 990.6 0.6---------
2019-06-06 03:00:00 17.3 13.0 14.5--- 7620.0wx-wx3wx--31011.6 990.3 0.0---------
2019-06-06 02:00:00 17.3 13.0 14.5--- 7620.0wx-wx3wx--31011.4 990.1 -0.5---------
2019-06-06 01:00:00 17.7 13.0 14.6--- 7417.0wx-3wx--31011.3 990.0 -1.1---------
2019-06-06 00:00:00 18.6 13.0 15.0--- 7020.0wx-2wx--21011.5 990.3 -0.6- 0.06------
9.5 ms

 

Print Friendly, PDF & Email